sensor_id;sensor_type;location;lat;lon;timestamp;pressure;altitude;pressure_sealevel;temperature;humidity
56042;BME280;48756;41.374;2.066;2023-02-18T00:01:20;102571.66;;;9.67;57.08
56042;BME280;48756;41.374;2.066;2023-02-18T00:03:46;102575.09;;;10.02;56.78
56042;BME280;48756;41.374;2.066;2023-02-18T00:06:27;102574.44;;;10.12;56.76
56042;BME280;48756;41.374;2.066;2023-02-18T00:08:54;102573.81;;;10.23;54.31
56042;BME280;48756;41.374;2.066;2023-02-18T00:11:21;102562.16;;;10.46;51.58
56042;BME280;48756;41.374;2.066;2023-02-18T00:13:54;102563.47;;;10.68;50.85
56042;BME280;48756;41.374;2.066;2023-02-18T00:16:21;102565.72;;;10.96;49.29
56042;BME280;48756;41.374;2.066;2023-02-18T00:18:47;102566.06;;;11.15;49.18
56042;BME280;48756;41.374;2.066;2023-02-18T00:21:14;102554.13;;;11.30;48.95
56042;BME280;48756;41.374;2.066;2023-02-18T00:23:39;102555.88;;;11.30;48.54
56042;BME280;48756;41.374;2.066;2023-02-18T00:26:07;102553.25;;;11.30;48.06
56042;BME280;48756;41.374;2.066;2023-02-18T00:28:34;102549.97;;;11.42;48.39
56042;BME280;48756;41.374;2.066;2023-02-18T00:31:05;102554.00;;;11.23;47.74
56042;BME280;48756;41.374;2.066;2023-02-18T00:33:31;102551.56;;;11.32;47.62
56042;BME280;48756;41.374;2.066;2023-02-18T00:36:11;102551.56;;;11.32;48.47
56042;BME280;48756;41.374;2.066;2023-02-18T00:38:58;102544.56;;;11.31;47.96
56042;BME280;48756;41.374;2.066;2023-02-18T00:41:24;102541.97;;;11.31;48.43
56042;BME280;48756;41.374;2.066;2023-02-18T00:43:50;102548.78;;;11.23;48.83
56042;BME280;48756;41.374;2.066;2023-02-18T00:46:20;102544.75;;;11.42;48.26
56042;BME280;48756;41.374;2.066;2023-02-18T00:48:45;102543.81;;;11.37;48.06
56042;BME280;48756;41.374;2.066;2023-02-18T00:51:11;102542.03;;;11.34;48.12
56042;BME280;48756;41.374;2.066;2023-02-18T00:53:37;102535.16;;;11.41;47.86
56042;BME280;48756;41.374;2.066;2023-02-18T00:56:03;102531.34;;;11.20;48.84
56042;BME280;48756;41.374;2.066;2023-02-18T00:58:29;102529.88;;;11.36;47.99
56042;BME280;48756;41.374;2.066;2023-02-18T01:00:55;102536.09;;;11.44;48.41
56042;BME280;48756;41.374;2.066;2023-02-18T01:03:21;102531.63;;;11.37;47.84
56042;BME280;48756;41.374;2.066;2023-02-18T01:05:48;102539.13;;;11.16;48.53
56042;BME280;48756;41.374;2.066;2023-02-18T01:08:15;102536.44;;;11.11;48.65
56042;BME280;48756;41.374;2.066;2023-02-18T01:10:43;102539.72;;;11.01;49.25
56042;BME280;48756;41.374;2.066;2023-02-18T01:13:10;102535.31;;;10.98;49.33
56042;BME280;48756;41.374;2.066;2023-02-18T01:15:37;102541.50;;;11.03;48.39
56042;BME280;48756;41.374;2.066;2023-02-18T01:18:04;102533.53;;;10.96;49.29
56042;BME280;48756;41.374;2.066;2023-02-18T01:20:33;102532.69;;;10.97;49.05
56042;BME280;48756;41.374;2.066;2023-02-18T01:22:59;102531.88;;;11.01;48.13
56042;BME280;48756;41.374;2.066;2023-02-18T01:25:24;102528.53;;;11.08;48.62
56042;BME280;48756;41.374;2.066;2023-02-18T01:27:50;102531.91;;;11.02;48.89
56042;BME280;48756;41.374;2.066;2023-02-18T01:30:17;102522.19;;;10.92;48.75
56042;BME280;48756;41.374;2.066;2023-02-18T01:32:43;102519.44;;;10.86;48.62
56042;BME280;48756;41.374;2.066;2023-02-18T01:35:12;102518.44;;;10.78;49.59
56042;BME280;48756;41.374;2.066;2023-02-18T01:37:37;102515.81;;;10.77;49.45
56042;BME280;48756;41.374;2.066;2023-02-18T01:40:04;102514.88;;;10.73;50.07
56042;BME280;48756;41.374;2.066;2023-02-18T01:42:30;102508.19;;;10.87;48.71
56042;BME280;48756;41.374;2.066;2023-02-18T01:48:12;102513.41;;;10.87;49.31
56042;BME280;48756;41.374;2.066;2023-02-18T01:50:44;102513.31;;;10.83;49.38
56042;BME280;48756;41.374;2.066;2023-02-18T01:53:14;102512.25;;;10.71;49.95
56042;BME280;48756;41.374;2.066;2023-02-18T01:55:41;102506.22;;;10.74;49.62
56042;BME280;48756;41.374;2.066;2023-02-18T01:58:07;102505.41;;;10.78;49.03
56042;BME280;48756;41.374;2.066;2023-02-18T02:00:32;102507.19;;;10.81;49.17
56042;BME280;48756;41.374;2.066;2023-02-18T02:02:58;102508.66;;;10.65;49.20
56042;BME280;48756;41.374;2.066;2023-02-18T02:05:28;102496.22;;;10.52;49.83
56042;BME280;48756;41.374;2.066;2023-02-18T02:07:54;102500.53;;;10.50;50.01
56042;BME280;48756;41.374;2.066;2023-02-18T02:10:20;102500.66;;;10.56;50.46
56042;BME280;48756;41.374;2.066;2023-02-18T02:13:06;102499.03;;;10.62;50.05
56042;BME280;48756;41.374;2.066;2023-02-18T02:40:06;102465.16;;;11.14;48.62
56042;BME280;48756;41.374;2.066;2023-02-18T02:51:10;102455.56;;;11.11;49.02
56042;BME280;48756;41.374;2.066;2023-02-18T02:53:40;102460.50;;;10.94;49.69
56042;BME280;48756;41.374;2.066;2023-02-18T02:56:12;102467.50;;;10.98;49.02
56042;BME280;48756;41.374;2.066;2023-02-18T02:58:37;102464.50;;;10.74;49.65
56042;BME280;48756;41.374;2.066;2023-02-18T03:18:36;102451.03;;;10.50;52.09
56042;BME280;48756;41.374;2.066;2023-02-18T03:21:26;102445.78;;;10.48;51.68
56042;BME280;48756;41.374;2.066;2023-02-18T03:24:02;102444.72;;;10.38;52.10
56042;BME280;48756;41.374;2.066;2023-02-18T03:26:32;102445.22;;;10.64;51.22
56042;BME280;48756;41.374;2.066;2023-02-18T03:29:02;102444.09;;;10.52;52.29
56042;BME280;48756;41.374;2.066;2023-02-18T03:31:30;102442.28;;;10.48;51.96
56042;BME280;48756;41.374;2.066;2023-02-18T03:34:06;102446.59;;;10.46;51.73
56042;BME280;48756;41.374;2.066;2023-02-18T03:36:33;102443.09;;;10.43;52.29
56042;BME280;48756;41.374;2.066;2023-02-18T03:39:15;102444.06;;;10.49;52.33
56042;BME280;48756;41.374;2.066;2023-02-18T03:41:42;102442.84;;;10.31;52.65
56042;BME280;48756;41.374;2.066;2023-02-18T03:44:09;102437.66;;;10.33;53.09
56042;BME280;48756;41.374;2.066;2023-02-18T03:46:37;102435.66;;;10.20;52.73
56042;BME280;48756;41.374;2.066;2023-02-18T03:49:03;102425.34;;;10.24;52.82
56042;BME280;48756;41.374;2.066;2023-02-18T03:51:30;102435.88;;;10.30;52.51
56042;BME280;48756;41.374;2.066;2023-02-18T03:53:55;102434.44;;;10.45;52.21
56042;BME280;48756;41.374;2.066;2023-02-18T03:56:24;102428.34;;;10.44;52.09
56042;BME280;48756;41.374;2.066;2023-02-18T03:58:49;102430.09;;;10.45;52.33
56042;BME280;48756;41.374;2.066;2023-02-18T04:01:15;102434.53;;;10.51;51.01
56042;BME280;48756;41.374;2.066;2023-02-18T04:03:40;102434.53;;;10.51;51.15
56042;BME280;48756;41.374;2.066;2023-02-18T04:06:06;102433.34;;;10.33;52.34
56042;BME280;48756;41.374;2.066;2023-02-18T04:08:32;102437.75;;;10.37;52.12
56042;BME280;48756;41.374;2.066;2023-02-18T04:10:57;102435.94;;;10.33;51.88
56042;BME280;48756;41.374;2.066;2023-02-18T04:13:23;102433.34;;;10.33;51.77
56042;BME280;48756;41.374;2.066;2023-02-18T04:15:49;102429.38;;;10.55;51.24
56042;BME280;48756;41.374;2.066;2023-02-18T04:18:24;102432.00;;;10.55;51.14
56042;BME280;48756;41.374;2.066;2023-02-18T04:20:50;102441.66;;;10.61;51.15
56042;BME280;48756;41.374;2.066;2023-02-18T04:23:16;102430.31;;;10.59;50.34
56042;BME280;48756;41.374;2.066;2023-02-18T04:25:41;102425.97;;;10.59;50.58
56042;BME280;48756;41.374;2.066;2023-02-18T04:28:08;102433.59;;;10.47;51.90
56042;BME280;48756;41.374;2.066;2023-02-18T04:30:35;102435.41;;;10.51;51.44
56042;BME280;48756;41.374;2.066;2023-02-18T04:33:01;102432.06;;;10.60;51.36
56042;BME280;48756;41.374;2.066;2023-02-18T04:35:26;102432.81;;;10.53;51.08
56042;BME280;48756;41.374;2.066;2023-02-18T04:37:52;102438.19;;;10.62;51.28
56042;BME280;48756;41.374;2.066;2023-02-18T04:40:17;102437.22;;;10.57;51.01
56042;BME280;48756;41.374;2.066;2023-02-18T04:42:43;102437.13;;;10.51;51.10
56042;BME280;48756;41.374;2.066;2023-02-18T04:45:08;102444.94;;;10.49;51.32
56042;BME280;48756;41.374;2.066;2023-02-18T04:47:34;102448.31;;;10.43;51.42
56042;BME280;48756;41.374;2.066;2023-02-18T04:49:59;102444.84;;;10.45;51.28
56042;BME280;48756;41.374;2.066;2023-02-18T04:52:25;102435.88;;;10.30;52.22
56042;BME280;48756;41.374;2.066;2023-02-18T04:54:50;102439.13;;;10.19;52.13
56042;BME280;48756;41.374;2.066;2023-02-18T04:57:16;102434.47;;;10.04;52.49
56042;BME280;48756;41.374;2.066;2023-02-18T04:59:42;102429.84;;;9.91;53.35
56042;BME280;48756;41.374;2.066;2023-02-18T05:02:08;102432.44;;;9.89;52.50
56042;BME280;48756;41.374;2.066;2023-02-18T05:04:33;102434.97;;;9.86;53.59
56042;BME280;48756;41.374;2.066;2023-02-18T05:06:59;102438.03;;;10.09;53.14
56042;BME280;48756;41.374;2.066;2023-02-18T05:09:25;102434.63;;;10.11;52.65
56042;BME280;48756;41.374;2.066;2023-02-18T05:11:50;102442.19;;;9.98;53.25
56042;BME280;48756;41.374;2.066;2023-02-18T05:14:17;102440.09;;;9.81;53.54
56042;BME280;48756;41.374;2.066;2023-02-18T05:16:42;102437.59;;;9.88;53.32
56042;BME280;48756;41.374;2.066;2023-02-18T05:19:11;102436.84;;;9.93;53.19
56042;BME280;48756;41.374;2.066;2023-02-18T05:21:41;102438.66;;;9.96;53.15
56042;BME280;48756;41.374;2.066;2023-02-18T05:24:07;102440.25;;;9.89;53.38
56042;BME280;48756;41.374;2.066;2023-02-18T05:26:36;102444.06;;;10.06;53.05
56042;BME280;48756;41.374;2.066;2023-02-18T05:29:02;102451.09;;;10.10;53.34
56042;BME280;48756;41.374;2.066;2023-02-18T05:31:28;102443.16;;;10.04;53.13
56042;BME280;48756;41.374;2.066;2023-02-18T05:33:54;102443.81;;;9.94;52.73
56042;BME280;48756;41.374;2.066;2023-02-18T05:36:19;102443.97;;;10.00;53.40
56042;BME280;48756;41.374;2.066;2023-02-18T05:38:45;102444.34;;;10.20;52.64
56042;BME280;48756;41.374;2.066;2023-02-18T05:41:10;102440.09;;;10.22;52.58
56042;BME280;48756;41.374;2.066;2023-02-18T05:43:36;102432.69;;;10.01;53.09
56042;BME280;48756;41.374;2.066;2023-02-18T05:46:22;102441.69;;;9.75;54.06
56042;BME280;48756;41.374;2.066;2023-02-18T05:48:47;102441.19;;;9.52;54.59
56042;BME280;48756;41.374;2.066;2023-02-18T05:51:14;102446.91;;;9.36;55.08
56042;BME280;48756;41.374;2.066;2023-02-18T05:53:39;102444.25;;;9.34;54.66
56042;BME280;48756;41.374;2.066;2023-02-18T05:56:05;102446.66;;;9.27;55.04
56042;BME280;48756;41.374;2.066;2023-02-18T05:58:31;102440.34;;;9.15;55.10
56042;BME280;48756;41.374;2.066;2023-02-18T06:00:57;102444.88;;;9.24;55.67
56042;BME280;48756;41.374;2.066;2023-02-18T06:03:22;102442.94;;;9.15;55.69
56042;BME280;48756;41.374;2.066;2023-02-18T06:05:51;102443.16;;;8.88;56.23
56042;BME280;48756;41.374;2.066;2023-02-18T06:08:17;102434.97;;;8.73;56.45
56042;BME280;48756;41.374;2.066;2023-02-18T06:10:44;102440.91;;;8.68;56.60
56042;BME280;48756;41.374;2.066;2023-02-18T06:13:10;102440.84;;;8.65;57.08
56042;BME280;48756;41.374;2.066;2023-02-18T06:15:35;102442.94;;;8.46;57.28
56042;BME280;48756;41.374;2.066;2023-02-18T06:18:02;102439.00;;;8.61;57.52
56042;BME280;48756;41.374;2.066;2023-02-18T06:20:27;102434.06;;;8.71;56.86
56042;BME280;48756;41.374;2.066;2023-02-18T06:22:53;102438.44;;;8.74;56.50
56042;BME280;48756;41.374;2.066;2023-02-18T06:25:18;102438.13;;;8.60;56.88
56042;BME280;48756;41.374;2.066;2023-02-18T06:27:44;102450.00;;;8.52;57.38
56042;BME280;48756;41.374;2.066;2023-02-18T06:30:09;102448.09;;;8.45;56.87
56042;BME280;48756;41.374;2.066;2023-02-18T06:32:35;102450.59;;;8.40;57.04
56042;BME280;48756;41.374;2.066;2023-02-18T06:35:01;102456.25;;;8.58;56.20
56042;BME280;48756;41.374;2.066;2023-02-18T06:37:27;102449.47;;;8.64;56.54
56042;BME280;48756;41.374;2.066;2023-02-18T06:39:52;102460.31;;;8.49;57.08
56042;BME280;48756;41.374;2.066;2023-02-18T06:42:18;102464.19;;;8.63;56.11
56042;BME280;48756;41.374;2.066;2023-02-18T06:44:43;102472.47;;;8.50;57.03
56042;BME280;48756;41.374;2.066;2023-02-18T06:47:09;102468.47;;;8.61;56.30
56042;BME280;48756;41.374;2.066;2023-02-18T06:49:34;102463.41;;;8.67;56.32
56042;BME280;48756;41.374;2.066;2023-02-18T06:52:01;102482.16;;;8.55;56.53
56042;BME280;48756;41.374;2.066;2023-02-18T06:54:26;102480.13;;;8.44;56.54
56042;BME280;48756;41.374;2.066;2023-02-18T06:56:52;102484.53;;;8.48;57.10
56042;BME280;48756;41.374;2.066;2023-02-18T06:59:18;102481.75;;;8.40;56.73
56042;BME280;48756;41.374;2.066;2023-02-18T07:01:43;102482.38;;;8.33;57.25
56042;BME280;48756;41.374;2.066;2023-02-18T07:04:09;102488.66;;;8.40;56.79
56042;BME280;48756;41.374;2.066;2023-02-18T07:06:34;102490.38;;;8.39;57.21
56042;BME280;48756;41.374;2.066;2023-02-18T07:09:00;102495.91;;;8.51;56.66
56042;BME280;48756;41.374;2.066;2023-02-18T07:11:26;102493.19;;;8.47;57.19
56042;BME280;48756;41.374;2.066;2023-02-18T07:13:51;102493.78;;;8.70;56.15
56042;BME280;48756;41.374;2.066;2023-02-18T07:16:17;102494.28;;;8.56;56.25
56042;BME280;48756;41.374;2.066;2023-02-18T07:18:42;102491.84;;;8.61;55.42
56042;BME280;48756;41.374;2.066;2023-02-18T07:21:10;102497.94;;;8.62;55.68
56042;BME280;48756;41.374;2.066;2023-02-18T07:23:36;102492.47;;;8.52;56.68
56042;BME280;48756;41.374;2.066;2023-02-18T07:26:10;102509.38;;;8.70;55.75
56042;BME280;48756;41.374;2.066;2023-02-18T07:28:36;102510.75;;;8.88;55.67
56042;BME280;48756;41.374;2.066;2023-02-18T07:31:02;102515.22;;;8.94;55.39
56042;BME280;48756;41.374;2.066;2023-02-18T07:33:28;102518.59;;;8.90;55.52
56042;BME280;48756;41.374;2.066;2023-02-18T07:35:59;102515.16;;;8.91;55.17
56042;BME280;48756;41.374;2.066;2023-02-18T07:38:26;102511.44;;;9.16;55.22
56042;BME280;48756;41.374;2.066;2023-02-18T07:40:52;102521.84;;;9.16;55.05
56042;BME280;48756;41.374;2.066;2023-02-18T07:43:18;102525.97;;;9.06;55.12
56042;BME280;48756;41.374;2.066;2023-02-18T07:45:44;102519.34;;;9.20;55.22
56042;BME280;48756;41.374;2.066;2023-02-18T07:48:09;102521.13;;;9.21;54.59
56042;BME280;48756;41.374;2.066;2023-02-18T07:50:39;102523.38;;;9.08;55.43
56042;BME280;48756;41.374;2.066;2023-02-18T07:53:05;102527.75;;;9.45;54.05
56042;BME280;48756;41.374;2.066;2023-02-18T07:55:33;102520.78;;;9.80;53.29
56042;BME280;48756;41.374;2.066;2023-02-18T07:58:19;102519.00;;;9.79;53.57
56042;BME280;48756;41.374;2.066;2023-02-18T08:00:46;102519.59;;;9.67;53.75
56042;BME280;48756;41.374;2.066;2023-02-18T08:03:16;102522.41;;;10.17;53.05
56042;BME280;48756;41.374;2.066;2023-02-18T08:05:42;102523.63;;;9.92;53.59
56042;BME280;48756;41.374;2.066;2023-02-18T08:08:13;102524.81;;;10.06;52.70
56042;BME280;48756;41.374;2.066;2023-02-18T08:10:39;102514.78;;;10.23;52.72
56042;BME280;48756;41.374;2.066;2023-02-18T08:13:05;102513.19;;;10.30;52.43
56042;BME280;48756;41.374;2.066;2023-02-18T08:15:30;102509.25;;;10.52;52.07
56042;BME280;48756;41.374;2.066;2023-02-18T08:17:56;102520.72;;;10.61;51.62
56042;BME280;48756;41.374;2.066;2023-02-18T08:20:21;102511.16;;;11.09;50.56
56042;BME280;48756;41.374;2.066;2023-02-18T08:22:47;102520.00;;;11.17;49.80
56042;BME280;48756;41.374;2.066;2023-02-18T08:25:12;102519.94;;;11.12;49.92
56042;BME280;48756;41.374;2.066;2023-02-18T08:27:38;102516.69;;;11.28;49.19
56042;BME280;48756;41.374;2.066;2023-02-18T08:30:04;102519.22;;;11.22;49.24
56042;BME280;48756;41.374;2.066;2023-02-18T08:32:30;102519.44;;;11.34;49.39
56042;BME280;48756;41.374;2.066;2023-02-18T08:34:56;102519.31;;;11.30;48.75
56042;BME280;48756;41.374;2.066;2023-02-18T08:37:21;102524.97;;;11.56;48.96
56042;BME280;48756;41.374;2.066;2023-02-18T08:39:48;102517.31;;;11.70;48.46
56042;BME280;48756;41.374;2.066;2023-02-18T08:42:13;102518.25;;;11.75;48.71
56042;BME280;48756;41.374;2.066;2023-02-18T08:44:39;102516.19;;;12.11;48.20
56042;BME280;48756;41.374;2.066;2023-02-18T08:47:04;102516.25;;;12.16;47.52
56042;BME280;48756;41.374;2.066;2023-02-18T08:49:30;102521.53;;;12.20;47.49
56042;BME280;48756;41.374;2.066;2023-02-18T08:51:56;102519.41;;;11.92;48.22
56042;BME280;48756;41.374;2.066;2023-02-18T08:54:21;102522.25;;;12.07;47.77
56042;BME280;48756;41.374;2.066;2023-02-18T08:56:47;102523.97;;;12.05;47.79
56042;BME280;48756;41.374;2.066;2023-02-18T08:59:13;102525.09;;;11.65;48.32
56042;BME280;48756;41.374;2.066;2023-02-18T09:01:38;102530.47;;;11.76;48.97
56042;BME280;48756;41.374;2.066;2023-02-18T09:04:04;102522.91;;;11.92;47.77
56042;BME280;48756;41.374;2.066;2023-02-18T09:06:29;102525.78;;;12.11;47.56
56042;BME280;48756;41.374;2.066;2023-02-18T09:08:55;102529.31;;;12.16;46.94
56042;BME280;48756;41.374;2.066;2023-02-18T09:11:21;102529.50;;;12.30;47.04
56042;BME280;48756;41.374;2.066;2023-02-18T09:13:46;102516.75;;;12.60;46.98
56042;BME280;48756;41.374;2.066;2023-02-18T09:16:17;102528.31;;;12.80;46.19
56042;BME280;48756;41.374;2.066;2023-02-18T09:18:43;102525.72;;;12.85;46.66
56042;BME280;48756;41.374;2.066;2023-02-18T09:21:11;102522.34;;;12.94;46.29
56042;BME280;48756;41.374;2.066;2023-02-18T09:23:37;102525.22;;;13.20;45.40
56042;BME280;48756;41.374;2.066;2023-02-18T09:26:04;102521.75;;;13.22;44.78
56042;BME280;48756;41.374;2.066;2023-02-18T09:28:30;102523.56;;;13.32;45.52
56042;BME280;48756;41.374;2.066;2023-02-18T09:30:56;102524.50;;;13.36;45.35
56042;BME280;48756;41.374;2.066;2023-02-18T09:33:21;102528.03;;;13.42;44.80
56042;BME280;48756;41.374;2.066;2023-02-18T09:35:47;102532.53;;;13.66;44.87
56042;BME280;48756;41.374;2.066;2023-02-18T09:38:15;102532.53;;;13.62;44.23
56042;BME280;48756;41.374;2.066;2023-02-18T09:40:44;102534.41;;;13.81;43.42
56042;BME280;48756;41.374;2.066;2023-02-18T09:43:34;102536.97;;;13.79;43.64
56042;BME280;48756;41.374;2.066;2023-02-18T09:46:01;102537.03;;;13.83;43.43
56042;BME280;48756;41.374;2.066;2023-02-18T09:48:31;102533.56;;;13.91;43.34
56042;BME280;48756;41.374;2.066;2023-02-18T09:50:58;102527.56;;;14.17;43.25
56042;BME280;48756;41.374;2.066;2023-02-18T09:53:23;102529.34;;;14.25;42.94
56042;BME280;48756;41.374;2.066;2023-02-18T09:55:54;102529.34;;;14.24;42.21
56042;BME280;48756;41.374;2.066;2023-02-18T09:58:24;102529.47;;;14.45;42.53
56042;BME280;48756;41.374;2.066;2023-02-18T10:00:55;102530.28;;;14.41;42.19
56042;BME280;48756;41.374;2.066;2023-02-18T10:03:25;102533.81;;;14.48;41.77
56042;BME280;48756;41.374;2.066;2023-02-18T10:06:17;102531.25;;;14.49;42.02
56042;BME280;48756;41.374;2.066;2023-02-18T10:08:46;102524.16;;;14.36;41.94
56042;BME280;48756;41.374;2.066;2023-02-18T10:13:58;102524.34;;;15.20;40.75
56042;BME280;48756;41.374;2.066;2023-02-18T10:16:25;102523.44;;;15.47;40.21
56042;BME280;48756;41.374;2.066;2023-02-18T10:18:52;102512.03;;;15.54;40.09
56042;BME280;48756;41.374;2.066;2023-02-18T10:21:24;102505.94;;;15.59;40.07
56042;BME280;48756;41.374;2.066;2023-02-18T10:26:37;102507.69;;;15.59;39.96
56042;BME280;48756;41.374;2.066;2023-02-18T10:29:16;102513.81;;;15.43;40.14
56042;BME280;48756;41.374;2.066;2023-02-18T10:31:45;102516.47;;;15.40;40.46
56042;BME280;48756;41.374;2.066;2023-02-18T10:48:05;102512.03;;;15.78;39.97
56042;BME280;48756;41.374;2.066;2023-02-18T10:50:37;102510.19;;;16.02;39.54
56042;BME280;48756;41.374;2.066;2023-02-18T10:53:36;102511.13;;;15.84;39.79
56042;BME280;48756;41.374;2.066;2023-02-18T10:56:05;102509.31;;;16.09;39.20
56042;BME280;48756;41.374;2.066;2023-02-18T10:58:35;102505.78;;;16.13;39.18
56042;BME280;48756;41.374;2.066;2023-02-18T11:01:06;102511.88;;;16.22;38.30
56042;BME280;48756;41.374;2.066;2023-02-18T11:03:49;102492.59;;;16.19;38.64
56042;BME280;48756;41.374;2.066;2023-02-18T11:06:37;102503.91;;;16.39;37.42
56042;BME280;48756;41.374;2.066;2023-02-18T11:09:04;102494.09;;;16.63;37.10
56042;BME280;48756;41.374;2.066;2023-02-18T11:11:38;102494.91;;;16.80;37.12
56042;BME280;48756;41.374;2.066;2023-02-18T11:14:06;102490.38;;;16.97;36.75
56042;BME280;48756;41.374;2.066;2023-02-18T11:16:43;102482.22;;;17.26;35.55
56042;BME280;48756;41.374;2.066;2023-02-18T11:19:35;102490.31;;;17.06;35.44
56042;BME280;48756;41.374;2.066;2023-02-18T11:24:38;102478.97;;;16.98;35.24
56042;BME280;48756;41.374;2.066;2023-02-18T11:27:09;102469.81;;;17.36;35.56
56042;BME280;48756;41.374;2.066;2023-02-18T11:29:35;102475.66;;;17.67;34.18
56042;BME280;48756;41.374;2.066;2023-02-18T11:32:00;102465.34;;;17.47;34.32
56042;BME280;48756;41.374;2.066;2023-02-18T11:34:29;102462.28;;;17.85;34.44
56042;BME280;48756;41.374;2.066;2023-02-18T11:37:08;102456.28;;;17.74;34.82
56042;BME280;48756;41.374;2.066;2023-02-18T11:39:34;102450.63;;;18.03;34.71
56042;BME280;48756;41.374;2.066;2023-02-18T11:42:01;102450.53;;;18.12;34.09
56042;BME280;48756;41.374;2.066;2023-02-18T11:44:41;102450.75;;;18.57;32.28
56042;BME280;48756;41.374;2.066;2023-02-18T11:49:37;102433.16;;;17.96;35.92
56042;BME280;48756;41.374;2.066;2023-02-18T11:52:18;102436.28;;;18.24;35.78
56042;BME280;48756;41.374;2.066;2023-02-18T11:55:06;102429.56;;;18.61;35.43
56042;BME280;48756;41.374;2.066;2023-02-18T11:57:34;102430.06;;;18.28;38.16
56042;BME280;48756;41.374;2.066;2023-02-18T12:00:04;102425.16;;;18.63;38.64
56042;BME280;48756;41.374;2.066;2023-02-18T12:02:40;102417.19;;;18.66;38.92
56042;BME280;48756;41.374;2.066;2023-02-18T12:05:22;102418.19;;;18.58;39.33
56042;BME280;48756;41.374;2.066;2023-02-18T12:07:59;102406.31;;;18.85;39.39
56042;BME280;48756;41.374;2.066;2023-02-18T12:10:44;102403.25;;;18.55;39.44
56042;BME280;48756;41.374;2.066;2023-02-18T12:13:22;102405.50;;;18.24;40.56
56042;BME280;48756;41.374;2.066;2023-02-18T12:15:57;102395.81;;;18.25;41.05
56042;BME280;48756;41.374;2.066;2023-02-18T12:24:16;102382.69;;;18.76;40.59
56042;BME280;48756;41.374;2.066;2023-02-18T12:35:35;102368.88;;;18.60;40.73
56042;BME280;48756;41.374;2.066;2023-02-18T12:55:20;102334.72;;;18.49;39.01
56042;BME280;48756;41.374;2.066;2023-02-18T12:58:12;102336.78;;;18.30;39.43
56042;BME280;48756;41.374;2.066;2023-02-18T13:08:45;102322.88;;;19.19;37.87
56042;BME280;48756;41.374;2.066;2023-02-18T13:13:59;102309.59;;;18.79;39.77
56042;BME280;48756;41.374;2.066;2023-02-18T13:16:28;102308.91;;;19.14;39.53
56042;BME280;48756;41.374;2.066;2023-02-18T13:21:26;102305.69;;;18.98;38.18
56042;BME280;48756;41.374;2.066;2023-02-18T13:24:02;102296.38;;;18.78;37.43
56042;BME280;48756;41.374;2.066;2023-02-18T13:26:31;102305.44;;;18.64;36.83
56042;BME280;48756;41.374;2.066;2023-02-18T13:39:46;102287.00;;;18.09;43.04
56042;BME280;48756;41.374;2.066;2023-02-18T13:58:40;102249.34;;;17.99;43.04
56042;BME280;48756;41.374;2.066;2023-02-18T14:06:31;102238.91;;;17.93;43.09
56042;BME280;48756;41.374;2.066;2023-02-18T14:19:28;102216.38;;;18.25;41.49
56042;BME280;48756;41.374;2.066;2023-02-18T14:22:27;102206.63;;;18.28;40.48
56042;BME280;48756;41.374;2.066;2023-02-18T14:24:59;102208.50;;;18.23;40.97
56042;BME280;48756;41.374;2.066;2023-02-18T14:27:27;102204.84;;;18.30;39.88
56042;BME280;48756;41.374;2.066;2023-02-18T14:29:52;102196.22;;;18.21;40.30
56042;BME280;48756;41.374;2.066;2023-02-18T14:32:22;102197.25;;;18.60;40.30
56042;BME280;48756;41.374;2.066;2023-02-18T14:43:06;102186.66;;;18.15;41.06
56042;BME280;48756;41.374;2.066;2023-02-18T14:48:35;102179.63;;;18.16;41.96
56042;BME280;48756;41.374;2.066;2023-02-18T14:51:06;102174.00;;;18.32;42.39
56042;BME280;48756;41.374;2.066;2023-02-18T14:53:31;102168.50;;;17.97;43.22
56042;BME280;48756;41.374;2.066;2023-02-18T14:56:03;102170.91;;;18.09;42.55
56042;BME280;48756;41.374;2.066;2023-02-18T15:00:54;102159.91;;;17.86;40.26
56042;BME280;48756;41.374;2.066;2023-02-18T15:03:20;102154.47;;;17.96;40.02
56042;BME280;48756;41.374;2.066;2023-02-18T15:05:49;102151.16;;;17.84;39.03
56042;BME280;48756;41.374;2.066;2023-02-18T15:08:23;102154.50;;;17.95;38.52
56042;BME280;48756;41.374;2.066;2023-02-18T15:10:57;102148.06;;;18.10;37.65
56042;BME280;48756;41.374;2.066;2023-02-18T15:13:35;102138.38;;;18.10;36.84
56042;BME280;48756;41.374;2.066;2023-02-18T15:16:04;102139.19;;;18.15;37.13
56042;BME280;48756;41.374;2.066;2023-02-18T15:18:43;102137.50;;;18.10;36.85
56042;BME280;48756;41.374;2.066;2023-02-18T15:21:20;102138.28;;;18.16;37.36
56042;BME280;48756;41.374;2.066;2023-02-18T15:23:49;102139.97;;;18.19;37.81
56042;BME280;48756;41.374;2.066;2023-02-18T15:26:16;102138.78;;;17.87;37.24
56042;BME280;48756;41.374;2.066;2023-02-18T15:28:50;102142.97;;;17.99;37.40
56042;BME280;48756;41.374;2.066;2023-02-18T15:31:17;102132.84;;;17.76;37.22
56042;BME280;48756;41.374;2.066;2023-02-18T15:33:46;102136.16;;;17.89;36.38
56042;BME280;48756;41.374;2.066;2023-02-18T15:36:13;102137.00;;;17.88;36.88
56042;BME280;48756;41.374;2.066;2023-02-18T15:38:39;102138.91;;;17.80;37.50
56042;BME280;48756;41.374;2.066;2023-02-18T15:41:14;102139.97;;;17.69;36.72
56042;BME280;48756;41.374;2.066;2023-02-18T15:43:52;102131.34;;;17.58;35.24
56042;BME280;48756;41.374;2.066;2023-02-18T15:46:19;102123.69;;;17.43;34.79
56042;BME280;48756;41.374;2.066;2023-02-18T15:48:48;102129.81;;;17.45;35.26
56042;BME280;48756;41.374;2.066;2023-02-18T15:51:20;102124.38;;;17.54;35.86
56042;BME280;48756;41.374;2.066;2023-02-18T15:53:51;102128.09;;;17.39;35.24
56042;BME280;48756;41.374;2.066;2023-02-18T15:58:56;102124.78;;;17.28;36.01
56042;BME280;48756;41.374;2.066;2023-02-18T16:01:31;102127.63;;;17.13;36.71
56042;BME280;48756;41.374;2.066;2023-02-18T16:03:57;102132.81;;;17.19;37.33